createdAt,value
2022-12-09T00:00:52.383Z,0.67
2022-12-09T00:01:52.576Z,0.70
2022-12-09T00:02:52.880Z,0.70
2022-12-09T00:03:53.055Z,0.67
2022-12-09T00:04:53.149Z,0.71
2022-12-09T00:05:53.200Z,0.74
2022-12-09T00:06:53.537Z,0.74
2022-12-09T00:07:53.888Z,0.76
2022-12-09T00:08:53.800Z,0.76
2022-12-09T00:09:53.897Z,0.73
2022-12-09T00:10:54.134Z,0.73
2022-12-09T00:11:54.280Z,0.76
2022-12-09T00:12:54.476Z,0.73
2022-12-09T00:13:54.783Z,0.73
2022-12-09T00:14:55.108Z,0.71
2022-12-09T00:15:55.351Z,0.68
2022-12-09T00:16:55.282Z,0.68
2022-12-09T00:17:55.406Z,0.66
2022-12-09T00:18:55.684Z,0.70
2022-12-09T00:19:55.709Z,0.70
2022-12-09T00:20:56.082Z,0.68
2022-12-09T00:21:56.217Z,0.70
2022-12-09T00:22:56.175Z,0.71
2022-12-09T00:23:56.602Z,0.71
2022-12-09T00:24:56.769Z,0.68
2022-12-09T00:25:56.864Z,0.68
2022-12-09T00:26:57.089Z,0.71
2022-12-09T00:27:57.046Z,0.73
2022-12-09T00:28:57.273Z,0.73
2022-12-09T00:29:57.470Z,0.70
2022-12-09T00:30:57.667Z,0.67
2022-12-09T00:31:58.094Z,0.64
2022-12-09T00:32:58.294Z,0.63
2022-12-09T00:33:58.361Z,0.66
2022-12-09T00:34:58.418Z,0.68
2022-12-09T00:35:58.549Z,0.68
2022-12-09T00:36:58.751Z,0.66
2022-12-09T00:37:59.097Z,0.66
2022-12-09T00:38:59.260Z,0.66
2022-12-09T00:39:59.310Z,0.64
2022-12-09T00:40:59.654Z,0.61
2022-12-09T00:41:59.693Z,0.59
2022-12-09T00:43:00.137Z,0.61
2022-12-09T00:44:00.070Z,0.61
2022-12-09T00:45:00.178Z,0.61
2022-12-09T00:46:00.330Z,0.64
2022-12-09T00:47:00.714Z,0.64
2022-12-09T00:48:00.658Z,0.63
2022-12-09T00:49:00.853Z,0.63
2022-12-09T00:50:01.044Z,0.61
2022-12-09T00:51:01.434Z,0.63
2022-12-09T00:52:01.633Z,0.64
2022-12-09T00:53:01.598Z,0.64
2022-12-09T00:54:02.049Z,0.63
2022-12-09T00:55:02.011Z,0.59
2022-12-09T00:56:02.251Z,0.61
2022-12-09T00:57:02.251Z,0.64
2022-12-09T00:58:02.547Z,0.67
2022-12-09T00:59:02.610Z,0.68
2022-12-09T01:00:02.935Z,0.66
2022-12-09T01:01:03.054Z,0.66
2022-12-09T01:02:03.212Z,0.63
2022-12-09T01:03:03.587Z,0.67
2022-12-09T01:04:03.674Z,0.64
2022-12-09T01:05:03.855Z,0.64
2022-12-09T01:06:03.679Z,0.59
2022-12-09T01:07:03.899Z,0.59
2022-12-09T01:08:04.078Z,0.59
2022-12-09T01:09:04.554Z,0.58
2022-12-09T01:10:05.011Z,0.56
2022-12-09T01:11:04.512Z,0.55
2022-12-09T01:12:04.670Z,0.55
2022-12-09T01:13:04.909Z,0.56
2022-12-09T01:14:05.231Z,0.58
2022-12-09T01:15:05.219Z,0.55
2022-12-09T01:16:05.525Z,0.51
2022-12-09T01:17:05.590Z,0.52
2022-12-09T01:18:05.711Z,0.51
2022-12-09T01:19:05.922Z,0.49
2022-12-09T01:20:06.451Z,0.48
2022-12-09T01:21:06.165Z,0.48
2022-12-09T01:22:06.395Z,0.49
2022-12-09T01:23:06.620Z,0.47
2022-12-09T01:24:06.882Z,0.44
2022-12-09T01:25:07.132Z,0.42
2022-12-09T01:26:06.972Z,0.37
2022-12-09T01:27:07.175Z,0.33
2022-12-09T01:28:07.401Z,0.30
2022-12-09T01:29:07.500Z,0.30
2022-12-09T01:30:08.169Z,0.29
2022-12-09T01:31:08.019Z,0.27
2022-12-09T01:32:08.227Z,0.24
2022-12-09T01:33:08.291Z,0.24
2022-12-09T01:34:08.349Z,0.24
2022-12-09T01:35:08.769Z,0.24
2022-12-09T01:36:08.743Z,0.23
2022-12-09T01:37:08.981Z,0.20
2022-12-09T01:38:09.389Z,0.19
2022-12-09T01:39:09.657Z,0.16
2022-12-09T01:40:09.863Z,0.16
2022-12-09T01:41:09.633Z,0.16
2022-12-09T01:42:10.055Z,0.15
2022-12-09T01:43:10.227Z,0.18
2022-12-09T01:44:10.462Z,0.18
2022-12-09T01:45:10.504Z,0.23
2022-12-09T01:46:10.546Z,0.26
2022-12-09T01:47:10.750Z,0.29
2022-12-09T01:48:11.088Z,0.33
2022-12-09T01:49:11.042Z,0.36
2022-12-09T01:50:11.739Z,0.36
2022-12-09T01:51:11.452Z,0.36
2022-12-09T01:52:11.656Z,0.34
2022-12-09T01:53:11.936Z,0.36
2022-12-09T01:54:12.097Z,0.37
2022-12-09T01:55:12.249Z,0.37
2022-12-09T01:56:12.707Z,0.42
2022-12-09T01:57:12.655Z,0.42
2022-12-09T01:58:12.878Z,0.40
2022-12-09T01:59:12.997Z,0.44
2022-12-09T02:00:13.609Z,0.40
2022-12-09T02:01:13.322Z,0.44
2022-12-09T02:02:13.733Z,0.45
2022-12-09T02:03:13.822Z,0.44
2022-12-09T02:04:13.864Z,0.40
2022-12-09T02:05:14.038Z,0.40
2022-12-09T02:06:14.157Z,0.42
2022-12-09T02:07:14.488Z,0.42
2022-12-09T02:08:14.606Z,0.42
2022-12-09T02:09:14.819Z,0.45
2022-12-09T02:10:14.845Z,0.51
2022-12-09T02:11:15.032Z,0.55
2022-12-09T02:12:15.389Z,0.55
2022-12-09T02:13:15.576Z,0.58
2022-12-09T02:14:15.857Z,0.61
2022-12-09T02:15:15.721Z,0.61
2022-12-09T02:16:16.187Z,0.66
2022-12-09T02:17:16.272Z,0.66
2022-12-09T02:18:16.320Z,0.66
2022-12-09T02:19:16.501Z,0.68
2022-12-09T02:20:16.772Z,0.70
2022-12-09T02:21:17.084Z,0.73
2022-12-09T02:22:16.919Z,0.74
2022-12-09T02:23:17.143Z,0.78
2022-12-09T02:24:17.457Z,0.77
2022-12-09T02:25:17.477Z,0.76
2022-12-09T02:26:17.613Z,0.76
2022-12-09T02:27:17.790Z,0.76
2022-12-09T02:28:18.025Z,0.77
2022-12-09T02:29:18.439Z,0.78
2022-12-09T02:30:18.395Z,0.77
2022-12-09T02:31:18.596Z,0.78
2022-12-09T02:32:19.101Z,0.78
2022-12-09T02:33:19.044Z,0.81
2022-12-09T02:34:19.063Z,0.84
2022-12-09T02:35:19.124Z,0.84
2022-12-09T02:36:19.355Z,0.84
2022-12-09T02:37:19.617Z,0.84
2022-12-09T02:38:19.776Z,0.81
2022-12-09T02:39:19.817Z,0.82
2022-12-09T02:40:20.003Z,0.82
2022-12-09T02:41:20.266Z,0.85
2022-12-09T02:42:20.532Z,0.85
2022-12-09T02:43:20.784Z,0.88
2022-12-09T02:44:20.633Z,0.91
2022-12-09T02:45:20.887Z,0.89
2022-12-09T02:46:21.032Z,0.89
2022-12-09T02:47:21.253Z,0.89
2022-12-09T02:48:21.373Z,0.94
2022-12-09T02:49:21.492Z,0.96
2022-12-09T02:50:21.729Z,0.99
2022-12-09T02:51:21.920Z,1.00
2022-12-09T02:52:21.870Z,1.00
2022-12-09T02:53:22.354Z,1.02
2022-12-09T02:54:22.374Z,1.00
2022-12-09T02:55:22.395Z,1.02
2022-12-09T02:56:22.436Z,1.02
2022-12-09T02:57:22.629Z,1.00
2022-12-09T02:58:23.030Z,1.00
2022-12-09T02:59:23.167Z,1.02
2022-12-09T03:00:23.446Z,1.03
2022-12-09T03:01:23.388Z,1.02
2022-12-09T03:02:23.662Z,1.03
2022-12-09T03:03:23.874Z,1.03
2022-12-09T03:04:23.919Z,1.03
2022-12-09T03:05:24.016Z,1.02
2022-12-09T03:06:24.214Z,1.04
2022-12-09T03:07:24.672Z,1.04
2022-12-09T03:08:24.718Z,1.02
2022-12-09T03:09:24.912Z,1.02
2022-12-09T03:10:25.186Z,0.99
2022-12-09T03:11:24.983Z,0.96
2022-12-09T03:12:25.193Z,0.96
2022-12-09T03:13:25.606Z,0.96
2022-12-09T03:14:25.567Z,0.95
2022-12-09T03:15:25.810Z,0.96
2022-12-09T03:16:26.134Z,0.95
2022-12-09T03:17:26.065Z,0.95
2022-12-09T03:18:26.212Z,0.94
2022-12-09T03:19:26.638Z,0.96
2022-12-09T03:20:26.515Z,0.95
2022-12-09T03:21:26.665Z,0.94
2022-12-09T03:22:27.017Z,0.94
2022-12-09T03:23:26.969Z,0.96
2022-12-09T03:24:27.216Z,0.96
2022-12-09T03:25:27.541Z,0.94
2022-12-09T03:26:27.527Z,0.94
2022-12-09T03:27:27.788Z,0.92
2022-12-09T03:28:27.878Z,0.92
2022-12-09T03:29:28.022Z,0.99
2022-12-09T03:30:28.073Z,1.00
2022-12-09T03:31:28.606Z,1.00
2022-12-09T03:32:28.499Z,1.02
2022-12-09T03:33:28.782Z,1.00
2022-12-09T03:34:28.726Z,1.02
2022-12-09T03:35:29.154Z,1.03
2022-12-09T03:36:29.364Z,1.00
2022-12-09T03:37:29.585Z,0.99
2022-12-09T03:38:29.482Z,0.95
2022-12-09T03:39:29.612Z,0.94
2022-12-09T03:40:30.071Z,0.92
2022-12-09T03:41:30.193Z,0.91
2022-12-09T03:42:30.412Z,0.92
2022-12-09T03:43:30.416Z,0.96
2022-12-09T03:44:30.650Z,0.95
2022-12-09T03:45:30.904Z,0.95
2022-12-09T03:46:30.880Z,0.99
2022-12-09T03:47:31.053Z,0.99
2022-12-09T03:48:31.364Z,1.02
2022-12-09T03:49:31.301Z,0.96
2022-12-09T03:50:31.541Z,0.96
2022-12-09T03:51:31.599Z,0.95
2022-12-09T03:52:31.971Z,0.94
2022-12-09T03:53:32.215Z,0.94
2022-12-09T03:54:32.134Z,0.94
2022-12-09T03:55:32.189Z,0.89
2022-12-09T03:56:32.328Z,0.88
2022-12-09T03:57:32.497Z,0.86
2022-12-09T03:58:32.747Z,0.88
2022-12-09T03:59:41.505Z,0.88
2022-12-09T04:00:32.969Z,0.89
2022-12-09T04:01:37.009Z,0.89
2022-12-09T04:02:34.265Z,0.86
2022-12-09T04:03:33.805Z,0.86
2022-12-09T04:04:33.931Z,0.84
2022-12-09T04:05:33.861Z,0.82
2022-12-09T04:06:33.926Z,0.84
2022-12-09T04:07:34.213Z,0.85
2022-12-09T04:08:34.569Z,0.84
2022-12-09T04:09:34.538Z,0.85
2022-12-09T04:10:34.595Z,0.84
2022-12-09T04:11:35.023Z,0.77
2022-12-09T04:12:35.196Z,0.73
2022-12-09T04:13:35.058Z,0.71
2022-12-09T04:14:35.233Z,0.73
2022-12-09T04:15:35.395Z,0.76
2022-12-09T04:16:35.654Z,0.81
2022-12-09T04:17:35.982Z,0.81
2022-12-09T04:18:36.133Z,0.78
2022-12-09T04:19:36.013Z,0.77
2022-12-09T04:20:36.282Z,0.84
2022-12-09T04:21:36.672Z,0.81
2022-12-09T04:22:36.483Z,0.74
2022-12-09T04:23:41.001Z,0.73
2022-12-09T04:24:37.839Z,0.73
2022-12-09T04:25:37.049Z,0.71
2022-12-09T04:26:37.407Z,0.76
2022-12-09T04:27:37.609Z,0.76
2022-12-09T04:28:37.482Z,0.76
2022-12-09T04:29:37.677Z,0.74
2022-12-09T04:30:37.832Z,0.74
2022-12-09T04:31:38.136Z,0.76
2022-12-09T04:32:38.191Z,0.76
2022-12-09T04:33:38.248Z,0.74
2022-12-09T04:34:38.427Z,0.74
2022-12-09T04:35:38.592Z,0.78
2022-12-09T04:36:38.916Z,0.82
2022-12-09T04:37:39.010Z,0.82
2022-12-09T04:38:39.155Z,0.81
2022-12-09T04:39:39.170Z,0.76
2022-12-09T04:40:39.683Z,0.77
2022-12-09T04:41:39.744Z,0.77
2022-12-09T04:42:39.852Z,0.78
2022-12-09T04:43:39.788Z,0.78
2022-12-09T04:44:39.985Z,0.77
2022-12-09T04:45:40.473Z,0.76
2022-12-09T04:46:40.441Z,0.81
2022-12-09T04:47:40.595Z,0.84
2022-12-09T04:48:40.615Z,0.81
2022-12-09T04:49:40.854Z,0.76
2022-12-09T04:50:41.202Z,0.73
2022-12-09T04:51:41.131Z,0.70
2022-12-09T04:52:41.202Z,0.70
2022-12-09T04:53:41.447Z,0.73
2022-12-09T04:54:41.760Z,0.71
2022-12-09T04:55:42.057Z,0.73
2022-12-09T04:56:41.944Z,0.74
2022-12-09T04:57:42.309Z,0.76
2022-12-09T04:58:42.348Z,0.78
2022-12-09T04:59:42.696Z,0.82
2022-12-09T05:00:42.682Z,0.86
2022-12-09T05:01:42.965Z,0.88
2022-12-09T05:02:43.028Z,0.91
2022-12-09T05:03:43.162Z,0.91
2022-12-09T05:04:43.357Z,0.86
2022-12-09T05:05:43.378Z,0.82
2022-12-09T05:06:43.678Z,0.78
2022-12-09T05:07:44.045Z,0.84
2022-12-09T05:08:43.991Z,0.84
2022-12-09T05:09:44.057Z,0.84
2022-12-09T05:10:44.625Z,0.82
2022-12-09T05:11:44.401Z,0.81
2022-12-09T05:12:44.843Z,0.78
2022-12-09T05:13:44.820Z,0.81
2022-12-09T05:14:44.897Z,0.81
2022-12-09T05:15:45.177Z,0.77
2022-12-09T05:16:45.481Z,0.78
2022-12-09T05:17:45.637Z,0.82
2022-12-09T05:18:45.862Z,0.81
2022-12-09T05:19:45.828Z,0.81
2022-12-09T05:20:46.088Z,0.82
2022-12-09T05:21:46.411Z,0.82
2022-12-09T05:22:46.216Z,0.78
2022-12-09T05:23:46.580Z,0.74
2022-12-09T05:24:46.774Z,0.71
2022-12-09T05:25:47.015Z,0.70
2022-12-09T05:26:46.880Z,0.70
2022-12-09T05:27:47.190Z,0.67
2022-12-09T05:28:47.555Z,0.68
2022-12-09T05:29:47.618Z,0.73
2022-12-09T05:30:48.168Z,0.70
2022-12-09T05:31:47.878Z,0.67
2022-12-09T05:32:48.161Z,0.68
2022-12-09T05:33:48.226Z,0.71
2022-12-09T05:34:48.564Z,0.73
2022-12-09T05:35:52.708Z,0.74
2022-12-09T05:36:49.746Z,0.73
2022-12-09T05:37:48.610Z,0.71
2022-12-09T05:38:49.094Z,0.71
2022-12-09T05:39:49.264Z,0.73
2022-12-09T05:40:49.149Z,0.73
2022-12-09T05:41:49.574Z,0.70
2022-12-09T05:42:49.653Z,0.66
2022-12-09T05:43:50.005Z,0.64
2022-12-09T05:44:49.916Z,0.64
2022-12-09T05:45:50.204Z,0.64
2022-12-09T05:46:50.533Z,0.63
2022-12-09T05:47:50.679Z,0.61
2022-12-09T05:48:50.846Z,0.61
2022-12-09T05:49:50.901Z,0.64
2022-12-09T05:50:51.100Z,0.61
2022-12-09T05:51:50.970Z,0.55
2022-12-09T05:52:51.214Z,0.55
2022-12-09T05:53:51.715Z,0.52
2022-12-09T05:54:51.905Z,0.49
2022-12-09T05:55:51.627Z,0.49
2022-12-09T05:56:51.963Z,0.48
2022-12-09T05:57:52.193Z,0.48
2022-12-09T05:58:52.198Z,0.48
2022-12-09T05:59:52.492Z,0.47
2022-12-09T06:00:52.701Z,0.48
2022-12-09T06:01:52.829Z,0.51
2022-12-09T06:02:53.306Z,0.55
2022-12-09T06:03:53.210Z,0.56
2022-12-09T06:04:53.626Z,0.58
2022-12-09T06:05:53.613Z,0.56
2022-12-09T06:06:53.789Z,0.56
2022-12-09T06:07:53.950Z,0.56
2022-12-09T06:08:54.224Z,0.56
2022-12-09T06:09:54.065Z,0.61
2022-12-09T06:10:54.542Z,0.61
2022-12-09T06:11:54.647Z,0.61
2022-12-09T06:12:54.816Z,0.59
2022-12-09T06:13:54.794Z,0.56
2022-12-09T06:14:54.960Z,0.55
2022-12-09T06:15:55.358Z,0.55
2022-12-09T06:16:55.230Z,0.56
2022-12-09T06:17:55.762Z,0.55
2022-12-09T06:18:55.968Z,0.58
2022-12-09T06:19:55.947Z,0.58
2022-12-09T06:20:56.169Z,0.56
2022-12-09T06:21:56.091Z,0.49
2022-12-09T06:22:56.341Z,0.47
2022-12-09T06:23:56.312Z,0.48
2022-12-09T06:24:57.299Z,0.49
2022-12-09T06:25:56.753Z,0.51
2022-12-09T06:26:56.932Z,0.49
2022-12-09T06:27:57.388Z,0.49
2022-12-09T06:28:57.615Z,0.48
2022-12-09T06:29:57.718Z,0.51
2022-12-09T06:30:57.907Z,0.52
2022-12-09T06:31:58.279Z,0.52
2022-12-09T06:32:58.480Z,0.59
2022-12-09T06:33:59.613Z,0.64
2022-12-09T06:34:58.853Z,0.67
2022-12-09T06:35:58.912Z,0.70
2022-12-09T06:36:58.838Z,0.74
2022-12-09T06:37:58.783Z,0.67
2022-12-09T06:39:05.938Z,0.64
2022-12-09T06:40:00.184Z,0.66
2022-12-09T06:40:59.508Z,0.67
2022-12-09T06:41:59.514Z,0.68
2022-12-09T06:42:59.747Z,0.64
2022-12-09T06:44:00.050Z,0.61
2022-12-09T06:45:00.000Z,0.59
2022-12-09T06:46:00.590Z,0.56
2022-12-09T06:47:00.500Z,0.58
2022-12-09T06:48:00.973Z,0.59
2022-12-09T06:49:01.033Z,0.61
2022-12-09T06:50:06.315Z,0.61
2022-12-09T06:51:02.116Z,0.63
2022-12-09T06:52:01.240Z,0.67
2022-12-09T06:53:01.429Z,0.67
2022-12-09T06:54:01.675Z,0.68
2022-12-09T06:55:01.649Z,0.71
2022-12-09T06:56:06.419Z,0.68
2022-12-09T06:57:03.171Z,0.67
2022-12-09T06:58:02.351Z,0.64
2022-12-09T06:59:02.131Z,0.63
2022-12-09T07:00:02.748Z,0.61
2022-12-09T07:01:02.879Z,0.59
2022-12-09T07:02:02.881Z,0.58
2022-12-09T07:03:02.858Z,0.59
2022-12-09T07:04:03.185Z,0.58
2022-12-09T07:05:03.177Z,0.51
2022-12-09T07:06:03.536Z,0.47
2022-12-09T07:07:03.509Z,0.45
2022-12-09T07:08:03.753Z,0.47
2022-12-09T07:09:03.971Z,0.48
2022-12-09T07:10:04.257Z,0.48
2022-12-09T07:11:04.532Z,0.48
2022-12-09T07:12:04.210Z,0.49
2022-12-09T07:13:04.356Z,0.48
2022-12-09T07:14:04.682Z,0.45
2022-12-09T07:15:05.639Z,0.45
2022-12-09T07:16:05.424Z,0.42
2022-12-09T07:17:05.530Z,0.39
2022-12-09T07:18:05.471Z,0.39
2022-12-09T07:19:05.641Z,0.40
2022-12-09T07:20:07.508Z,0.42
2022-12-09T07:21:06.177Z,0.39
2022-12-09T07:22:06.165Z,0.36
2022-12-09T07:23:06.028Z,0.36
2022-12-09T07:24:06.534Z,0.39
2022-12-09T07:25:06.992Z,0.37
2022-12-09T07:26:06.797Z,0.36
2022-12-09T07:27:10.693Z,0.37
2022-12-09T07:28:07.994Z,0.42
2022-12-09T07:29:07.276Z,0.49
2022-12-09T07:30:07.583Z,0.51
2022-12-09T07:31:07.780Z,0.48
2022-12-09T07:32:07.788Z,0.49
2022-12-09T07:33:07.895Z,0.47
2022-12-09T07:34:08.393Z,0.44
2022-12-09T07:35:08.492Z,0.44
2022-12-09T07:36:08.438Z,0.48
2022-12-09T07:37:08.538Z,0.56
2022-12-09T07:38:08.641Z,0.61
2022-12-09T07:39:08.627Z,0.66
2022-12-09T07:40:08.728Z,0.67
2022-12-09T07:41:08.894Z,0.68
2022-12-09T07:42:08.980Z,0.68
2022-12-09T07:43:09.456Z,0.66
2022-12-09T07:44:09.383Z,0.58
2022-12-09T07:45:09.644Z,0.52
2022-12-09T07:46:09.921Z,0.48
2022-12-09T07:47:10.090Z,0.47
2022-12-09T07:48:10.197Z,0.48
2022-12-09T07:49:10.155Z,0.51
2022-12-09T07:50:10.492Z,0.55
2022-12-09T07:51:10.296Z,0.59
2022-12-09T07:52:10.411Z,0.59
2022-12-09T07:53:10.610Z,0.61
2022-12-09T07:54:11.132Z,0.61
2022-12-09T07:55:11.164Z,0.66
2022-12-09T07:56:11.176Z,0.64
2022-12-09T07:57:11.383Z,0.68
2022-12-09T07:58:11.785Z,0.70
2022-12-09T07:59:11.644Z,0.71
2022-12-09T08:00:12.145Z,0.71
2022-12-09T08:01:12.117Z,0.77
2022-12-09T08:02:12.017Z,0.84
2022-12-09T08:03:12.398Z,0.86
2022-12-09T08:04:12.649Z,0.84
2022-12-09T08:05:13.396Z,0.82
2022-12-09T08:06:12.955Z,0.82
2022-12-09T08:07:13.797Z,0.76
2022-12-09T08:08:13.628Z,0.77
2022-12-09T08:09:13.561Z,0.81
2022-12-09T08:10:13.518Z,0.86
2022-12-09T08:11:13.792Z,0.82
2022-12-09T08:12:13.814Z,0.78
2022-12-09T08:13:14.159Z,0.82
2022-12-09T08:14:14.290Z,0.86
2022-12-09T08:15:14.921Z,0.91
2022-12-09T08:16:14.431Z,0.95
2022-12-09T08:17:14.929Z,0.95
2022-12-09T08:18:15.002Z,0.99
2022-12-09T08:19:15.424Z,1.06
2022-12-09T08:20:15.609Z,1.09
2022-12-09T08:21:15.395Z,1.03
2022-12-09T08:22:15.460Z,1.04
2022-12-09T08:23:16.641Z,0.96
2022-12-09T08:24:15.925Z,0.86
2022-12-09T08:25:16.484Z,0.76
2022-12-09T08:26:16.152Z,0.68
2022-12-09T08:27:16.338Z,0.67
2022-12-09T08:28:16.437Z,0.70
2022-12-09T08:29:16.828Z,0.73
2022-12-09T08:30:17.049Z,0.78
2022-12-09T08:31:17.135Z,0.81
2022-12-09T08:32:17.133Z,0.76
2022-12-09T08:33:17.400Z,0.76
2022-12-09T08:34:17.624Z,0.82
2022-12-09T08:35:17.701Z,0.82
2022-12-09T08:36:17.467Z,0.82
2022-12-09T08:37:17.689Z,0.85
2022-12-09T08:38:17.971Z,0.86
2022-12-09T08:39:18.191Z,0.91
2022-12-09T08:40:18.533Z,0.92
2022-12-09T08:41:18.344Z,0.94
2022-12-09T08:42:18.388Z,0.82
2022-12-09T08:43:18.603Z,0.71
2022-12-09T08:44:18.877Z,0.66
2022-12-09T08:45:19.361Z,0.63
2022-12-09T08:46:19.623Z,0.61
2022-12-09T08:47:19.681Z,0.59
2022-12-09T08:48:19.831Z,0.63
2022-12-09T08:49:20.232Z,0.61
2022-12-09T08:50:19.927Z,0.64
2022-12-09T08:51:19.815Z,0.71
2022-12-09T08:52:20.415Z,0.76
2022-12-09T08:53:20.419Z,0.85
2022-12-09T08:54:20.824Z,0.94
2022-12-09T08:55:20.430Z,0.94
2022-12-09T08:56:20.742Z,0.94
2022-12-09T08:57:20.988Z,0.95
2022-12-09T08:58:21.268Z,0.88
2022-12-09T08:59:21.525Z,0.78
2022-12-09T09:00:21.618Z,0.78
2022-12-09T09:01:21.755Z,0.82
2022-12-09T09:02:22.028Z,0.82
2022-12-09T09:03:21.959Z,0.86
2022-12-09T09:04:22.248Z,0.94
2022-12-09T09:05:22.317Z,0.91
2022-12-09T09:06:22.433Z,0.84
2022-12-09T09:07:22.761Z,0.74
2022-12-09T09:08:22.806Z,0.73
2022-12-09T09:09:23.341Z,0.68
2022-12-09T09:10:30.303Z,0.67
2022-12-09T09:11:23.377Z,0.66
2022-12-09T09:12:23.446Z,0.67
2022-12-09T09:13:23.794Z,0.67
2022-12-09T09:14:23.650Z,0.71
2022-12-09T09:15:23.932Z,0.74
2022-12-09T09:16:24.096Z,0.74
2022-12-09T09:17:24.674Z,0.77
2022-12-09T09:18:24.118Z,0.81
2022-12-09T09:19:24.389Z,0.74
2022-12-09T09:20:24.832Z,0.81
2022-12-09T09:21:24.958Z,0.78
2022-12-09T09:22:24.882Z,0.78
2022-12-09T09:23:25.012Z,0.81
2022-12-09T09:24:25.390Z,0.85
2022-12-09T09:25:25.559Z,0.88
2022-12-09T09:26:26.149Z,0.92
2022-12-09T09:27:25.631Z,0.92
2022-12-09T09:28:30.627Z,0.94
2022-12-09T09:29:27.021Z,0.99
2022-12-09T09:30:26.144Z,1.00
2022-12-09T09:31:26.664Z,0.99
2022-12-09T09:32:26.545Z,0.99
2022-12-09T09:33:26.539Z,1.06
2022-12-09T09:34:26.948Z,1.12
2022-12-09T09:35:26.656Z,1.13
2022-12-09T09:36:27.123Z,1.07
2022-12-09T09:37:27.146Z,0.99
2022-12-09T09:38:27.107Z,0.99
2022-12-09T09:39:27.396Z,1.00
2022-12-09T09:40:27.585Z,1.00
2022-12-09T09:41:27.896Z,0.92
2022-12-09T09:42:27.837Z,0.96
2022-12-09T09:43:27.853Z,0.96
2022-12-09T09:44:28.139Z,0.95
2022-12-09T09:45:28.139Z,0.94
2022-12-09T09:46:28.600Z,0.86
2022-12-09T09:47:31.607Z,0.85
2022-12-09T09:48:29.665Z,0.91
2022-12-09T09:49:28.879Z,0.99
2022-12-09T09:50:28.878Z,1.00
2022-12-09T09:51:28.732Z,0.99
2022-12-09T09:52:28.998Z,0.91
2022-12-09T09:53:29.404Z,0.89
2022-12-09T09:54:29.264Z,0.85
2022-12-09T09:55:29.255Z,0.81
2022-12-09T09:56:29.411Z,0.84
2022-12-09T09:57:30.015Z,0.86
2022-12-09T09:58:30.251Z,0.84
2022-12-09T09:59:37.401Z,0.85
2022-12-09T10:00:30.383Z,0.89
2022-12-09T10:01:30.650Z,0.89
2022-12-09T10:02:30.960Z,0.95
2022-12-09T10:03:30.779Z,1.02
2022-12-09T10:04:31.068Z,1.03
2022-12-09T10:05:31.511Z,1.10
2022-12-09T10:06:31.256Z,1.12
2022-12-09T10:07:31.342Z,1.18
2022-12-09T10:08:31.490Z,1.20
2022-12-09T10:09:32.076Z,1.25
2022-12-09T10:10:31.784Z,1.31
2022-12-09T10:11:32.082Z,1.36
2022-12-09T10:12:32.608Z,1.28
2022-12-09T10:13:32.790Z,1.28
2022-12-09T10:14:32.474Z,1.30
2022-12-09T10:15:32.742Z,1.32
2022-12-09T10:16:32.937Z,1.32
2022-12-09T10:17:33.076Z,1.36
2022-12-09T10:18:33.023Z,1.42
2022-12-09T10:19:33.609Z,1.48
2022-12-09T10:20:33.178Z,1.42
2022-12-09T10:21:33.489Z,1.50
2022-12-09T10:22:33.751Z,1.56
2022-12-09T10:23:34.207Z,1.64
2022-12-09T10:24:39.245Z,1.67
2022-12-09T10:25:35.396Z,1.61
2022-12-09T10:26:34.405Z,1.61
2022-12-09T10:27:34.230Z,1.64
2022-12-09T10:28:34.564Z,1.70
2022-12-09T10:29:34.388Z,1.68
2022-12-09T10:30:41.682Z,1.53
2022-12-09T10:31:35.939Z,1.24
2022-12-09T10:32:34.848Z,1.09
2022-12-09T10:33:35.513Z,0.96
2022-12-09T10:34:35.634Z,0.86
2022-12-09T10:35:35.699Z,0.86
2022-12-09T10:36:36.646Z,0.81
2022-12-09T10:37:35.497Z,0.74
2022-12-09T10:38:35.775Z,0.67
2022-12-09T10:39:36.278Z,0.64
2022-12-09T10:40:36.265Z,0.70
2022-12-09T10:41:36.251Z,0.74
2022-12-09T10:42:36.707Z,0.82
2022-12-09T10:43:36.544Z,0.88
2022-12-09T10:44:36.804Z,0.92
2022-12-09T10:46:14.962Z,0.91
2022-12-09T10:46:38.001Z,0.89
2022-12-09T10:47:37.317Z,0.95
2022-12-09T10:48:37.646Z,1.02
2022-12-09T10:49:37.822Z,1.03
2022-12-09T10:50:37.606Z,1.04
2022-12-09T10:51:37.601Z,0.91
2022-12-09T10:52:37.845Z,0.85
2022-12-09T10:53:38.239Z,0.84
2022-12-09T10:54:37.960Z,0.86
2022-12-09T10:55:38.174Z,0.92
2022-12-09T10:56:38.653Z,0.96
2022-12-09T10:57:38.757Z,0.96
2022-12-09T10:58:38.686Z,0.95
2022-12-09T10:59:38.841Z,0.96
2022-12-09T11:00:40.297Z,0.96
2022-12-09T11:01:39.258Z,0.94
2022-12-09T11:02:39.719Z,0.94
2022-12-09T11:03:39.746Z,1.00
2022-12-09T11:04:40.038Z,1.07
2022-12-09T11:05:40.319Z,1.18
2022-12-09T11:06:39.974Z,1.25
2022-12-09T11:07:40.146Z,1.36
2022-12-09T11:08:40.712Z,1.38
2022-12-09T11:09:40.610Z,1.36
2022-12-09T11:10:41.068Z,1.45
2022-12-09T11:11:41.144Z,1.49
2022-12-09T11:12:41.737Z,1.42
2022-12-09T11:13:41.242Z,1.34
2022-12-09T11:14:41.432Z,1.24
2022-12-09T11:15:41.481Z,1.21
2022-12-09T11:16:41.781Z,1.27
2022-12-09T11:17:41.539Z,1.34
2022-12-09T11:18:41.961Z,1.36
2022-12-09T11:19:41.859Z,1.40
2022-12-09T11:20:42.152Z,1.46
2022-12-09T11:21:42.351Z,1.58
2022-12-09T11:22:42.451Z,1.67
2022-12-09T11:23:42.569Z,1.53
2022-12-09T11:24:42.616Z,1.48
2022-12-09T11:25:42.684Z,1.39
2022-12-09T11:26:43.288Z,1.31
2022-12-09T11:27:43.364Z,1.31
2022-12-09T11:28:43.344Z,1.25
2022-12-09T11:29:43.617Z,1.20
2022-12-09T11:31:04.898Z,1.13
2022-12-09T11:31:44.818Z,1.10
2022-12-09T11:32:44.061Z,1.12
2022-12-09T11:33:44.153Z,1.18
2022-12-09T11:34:44.064Z,1.31
2022-12-09T11:35:44.341Z,1.42
2022-12-09T11:36:44.496Z,1.56
2022-12-09T11:37:44.308Z,1.63
2022-12-09T11:38:45.365Z,1.63
2022-12-09T11:39:44.666Z,1.67
2022-12-09T11:40:44.802Z,1.70
2022-12-09T11:41:44.980Z,1.67
2022-12-09T11:42:45.138Z,1.63
2022-12-09T11:43:45.320Z,1.68
2022-12-09T11:44:45.506Z,1.68
2022-12-09T11:45:45.671Z,1.61
2022-12-09T11:46:45.846Z,1.63
2022-12-09T11:48:47.092Z,1.42
2022-12-09T11:49:46.304Z,1.39
2022-12-09T11:50:46.417Z,1.27
2022-12-09T11:51:46.467Z,1.14
2022-12-09T11:52:46.623Z,1.16
2022-12-09T11:53:46.804Z,1.24
2022-12-09T11:54:46.985Z,1.30
2022-12-09T11:55:47.155Z,1.40
2022-12-09T11:56:47.387Z,1.53
2022-12-09T11:57:47.424Z,1.58
2022-12-09T11:58:47.559Z,1.48
2022-12-09T11:59:47.734Z,1.32
2022-12-09T12:00:47.908Z,1.31
2022-12-09T12:01:48.139Z,1.28
2022-12-09T12:02:48.266Z,1.27
2022-12-09T12:03:48.516Z,1.28
2022-12-09T12:04:48.613Z,1.25
2022-12-09T12:05:48.830Z,1.25
2022-12-09T12:06:48.919Z,1.27
2022-12-09T12:07:49.306Z,1.20
2022-12-09T12:08:49.491Z,1.18
2022-12-09T12:09:49.261Z,1.27
2022-12-09T12:10:49.424Z,1.39
2022-12-09T12:11:49.595Z,1.43
2022-12-09T12:12:49.747Z,1.50
2022-12-09T12:13:49.918Z,1.56
2022-12-09T12:14:50.100Z,1.57
2022-12-09T12:15:50.245Z,1.57
2022-12-09T12:16:50.408Z,1.60
2022-12-09T12:17:50.683Z,1.42
2022-12-09T12:18:50.786Z,1.36
2022-12-09T12:19:50.873Z,1.31
2022-12-09T12:20:51.033Z,1.31
2022-12-09T12:21:51.211Z,1.21
2022-12-09T12:22:54.643Z,1.13
2022-12-09T12:23:51.539Z,1.13
2022-12-09T12:24:51.722Z,1.16
2022-12-09T12:25:51.923Z,1.14
2022-12-09T12:26:51.963Z,1.22
2022-12-09T12:27:52.125Z,1.27
2022-12-09T12:28:58.042Z,1.27
2022-12-09T12:29:53.394Z,1.30
2022-12-09T12:30:52.558Z,1.38
2022-12-09T12:31:52.773Z,1.48
2022-12-09T12:33:40.675Z,1.58
2022-12-09T12:34:16.010Z,1.67
2022-12-09T12:34:54.046Z,1.71
2022-12-09T12:35:53.214Z,1.71
2022-12-09T12:36:53.366Z,1.60
2022-12-09T12:37:53.545Z,1.50
2022-12-09T12:38:53.689Z,1.49
2022-12-09T12:39:53.860Z,1.53
2022-12-09T12:40:54.063Z,1.56
2022-12-09T12:41:54.233Z,1.60
2022-12-09T12:42:54.412Z,1.63
2022-12-09T12:43:54.567Z,1.58
2022-12-09T12:44:54.730Z,1.53
2022-12-09T12:45:55.258Z,1.52
2022-12-09T12:46:54.976Z,1.53
2022-12-09T12:47:55.218Z,1.52
2022-12-09T12:48:55.273Z,1.39
2022-12-09T12:49:55.479Z,1.34
2022-12-09T12:50:55.666Z,1.43
2022-12-09T12:51:55.828Z,1.50
2022-12-09T12:52:56.857Z,1.45
2022-12-09T12:53:56.147Z,1.48
2022-12-09T12:54:56.303Z,1.38
2022-12-09T12:55:56.503Z,1.32
2022-12-09T12:56:56.654Z,1.39
2022-12-09T12:57:56.812Z,1.34
2022-12-09T12:58:56.962Z,1.25
2022-12-09T12:59:57.154Z,1.16
2022-12-09T13:00:57.352Z,1.10
2022-12-09T13:01:57.468Z,1.09
2022-12-09T13:03:03.089Z,1.12
2022-12-09T13:03:58.677Z,1.16
2022-12-09T13:04:57.824Z,1.21
2022-12-09T13:05:57.998Z,1.21
2022-12-09T13:06:58.148Z,1.24
2022-12-09T13:07:58.419Z,1.25
2022-12-09T13:09:03.051Z,1.31
2022-12-09T13:09:59.596Z,1.27
2022-12-09T13:10:58.757Z,1.28
2022-12-09T13:11:58.933Z,1.28
2022-12-09T13:12:59.111Z,1.32
2022-12-09T13:13:59.267Z,1.36
2022-12-09T13:14:59.445Z,1.36
2022-12-09T13:15:59.648Z,1.32
2022-12-09T13:16:59.836Z,1.32
2022-12-09T13:18:00.016Z,1.36
2022-12-09T13:19:00.189Z,1.39
2022-12-09T13:20:00.392Z,1.38
2022-12-09T13:21:00.618Z,1.38
2022-12-09T13:22:00.687Z,1.31